Time;durP1;ratioP1;P1;durP2;ratioP2;P2;SDS_P1;SDS_P2;PMS_P1;PMS_P2;Temp;Humidity;BMP_temperature;BMP_pressure;BME280_temperature;BME280_humidity;BME280_pressure;Samples;Min_cycle;Max_cycle;Signal;HPM_P1;HPM_P2
2022/07/18 00:01:44;;;;;;;6.33;3.60;;;19.70;11.30;;;;;;5057383;28;20500;-73
2022/07/18 00:04:11;;;;;;;5.53;2.80;;;19.70;11.80;;;;;;5060948;28;20465;-74
2022/07/18 00:06:38;;;;;;;5.50;3.40;;;19.60;11.50;;;;;;5057081;28;20488;-75
2022/07/18 00:09:05;;;;;;;8.87;3.40;;;19.60;11.10;;;;;;5059044;28;20866;-74
2022/07/18 00:11:32;;;;;;;7.17;3.43;;;19.60;11.30;;;;;;5048450;28;20493;-74
2022/07/18 00:13:58;;;;;;;5.20;3.20;;;19.60;11.40;;;;;;5045673;28;20958;-75
2022/07/18 00:16:27;;;;;;;5.70;3.03;;;19.60;11.10;;;;;;5047741;28;20489;-74
2022/07/18 00:18:54;;;;;;;6.00;3.20;;;19.60;11.20;;;;;;5048317;28;20503;-73
2022/07/18 00:21:21;;;;;;;7.60;3.50;;;19.50;11.40;;;;;;5048147;28;20462;-73
2022/07/18 00:23:48;;;;;;;5.80;2.90;;;19.50;11.40;;;;;;5047093;28;20473;-73
2022/07/18 00:26:15;;;;;;;8.10;3.80;;;19.50;11.30;;;;;;5048018;28;20489;-73
2022/07/18 00:28:42;;;;;;;6.37;4.00;;;19.40;11.30;;;;;;5048578;28;20488;-73
2022/07/18 00:31:09;;;;;;;4.70;2.63;;;19.40;11.30;;;;;;5047589;28;20501;-74
2022/07/18 00:33:37;;;;;;;6.57;2.80;;;19.40;11.10;;;;;;5047287;28;21022;-74
2022/07/18 00:36:04;;;;;;;6.53;3.03;;;19.40;11.30;;;;;;5047981;28;20496;-74
2022/07/18 00:38:31;;;;;;;7.60;2.93;;;19.40;11.20;;;;;;5048010;28;20458;-74
2022/07/18 00:40:58;;;;;;;8.30;3.00;;;19.40;11.20;;;;;;5047929;28;20474;-73
2022/07/18 00:43:24;;;;;;;8.10;3.30;;;19.30;11.30;;;;;;5047686;28;20458;-74
2022/07/18 00:45:52;;;;;;;5.00;3.10;;;19.30;11.30;;;;;;5047118;28;20482;-73
2022/07/18 00:48:20;;;;;;;6.90;3.30;;;19.20;11.20;;;;;;5048658;28;20489;-73
2022/07/18 00:50:48;;;;;;;8.27;3.57;;;19.20;11.40;;;;;;5048336;28;20556;-74
2022/07/18 00:53:15;;;;;;;4.77;2.63;;;19.10;11.70;;;;;;5050110;28;20709;-74
2022/07/18 00:55:46;;;;;;;7.87;3.13;;;19.10;11.70;;;;;;5052021;28;20986;-73
2022/07/18 00:58:14;;;;;;;5.20;2.30;;;19.00;11.20;;;;;;5052499;28;20503;-74
2022/07/18 01:03:27;;;;;;;5.53;3.00;;;18.90;11.20;;;;;;5051144;28;20426;-73
2022/07/18 01:05:55;;;;;;;5.70;2.67;;;18.90;11.30;;;;;;5052011;28;20552;-74
2022/07/18 01:08:22;;;;;;;5.47;2.63;;;18.90;11.40;;;;;;5051937;28;20466;-73
2022/07/18 01:10:51;;;;;;;5.43;2.03;;;18.80;11.30;;;;;;5052988;28;20469;-74
2022/07/18 01:13:18;;;;;;;4.60;2.40;;;18.80;11.30;;;;;;5051798;28;20529;-75
2022/07/18 01:15:45;;;;;;;5.10;2.60;;;18.80;11.40;;;;;;5050537;28;20839;-73
2022/07/18 01:18:11;;;;;;;6.43;3.07;;;18.70;11.60;;;;;;5052291;28;20541;-75
2022/07/18 01:20:40;;;;;;;5.50;2.70;;;18.70;11.70;;;;;;5051529;28;20458;-73
2022/07/18 01:23:06;;;;;;;7.00;3.10;;;18.60;11.80;;;;;;5051721;28;20457;-73
2022/07/18 01:25:33;;;;;;;4.70;2.60;;;18.50;11.80;;;;;;5051646;28;20481;-75
2022/07/18 01:28:00;;;;;;;6.40;3.00;;;18.50;11.40;;;;;;5051975;28;20458;-74
2022/07/18 01:30:27;;;;;;;4.60;2.20;;;18.50;11.30;;;;;;5050488;28;20993;-72
2022/07/18 01:32:59;;;;;;;6.43;2.50;;;18.50;11.40;;;;;;5050816;28;20481;-72
2022/07/18 01:35:26;;;;;;;5.03;2.83;;;18.50;11.50;;;;;;5051232;28;20620;-72
2022/07/18 01:37:56;;;;;;;6.07;2.57;;;18.40;11.60;;;;;;5051811;28;20462;-73
2022/07/18 01:40:24;;;;;;;7.20;2.33;;;18.40;11.50;;;;;;5051811;28;20464;-72
2022/07/18 01:42:51;;;;;;;5.90;2.60;;;18.40;11.20;;;;;;5053413;28;20453;-72
2022/07/18 01:45:19;;;;;;;4.80;2.53;;;18.40;10.60;;;;;;5050692;28;20598;-73
2022/07/18 01:47:46;;;;;;;5.33;1.90;;;18.40;10.50;;;;;;5051322;28;20458;-72
2022/07/18 01:50:14;;;;;;;5.60;2.43;;;18.40;10.70;;;;;;5051059;28;20812;-73
2022/07/18 01:52:41;;;;;;;6.97;2.87;;;18.30;10.80;;;;;;5050767;28;20474;-73
2022/07/18 01:55:11;;;;;;;4.77;2.30;;;18.30;10.90;;;;;;5050920;28;20488;-73
2022/07/18 01:57:38;;;;;;;6.20;3.37;;;18.30;10.70;;;;;;5051682;28;20461;-72
2022/07/18 02:00:07;;;;;;;7.17;3.10;;;18.30;10.90;;;;;;5051194;28;20464;-72
2022/07/18 02:02:34;;;;;;;11.27;3.17;;;18.30;11.00;;;;;;5049838;28;20880;-74
2022/07/18 02:05:02;;;;;;;6.03;3.30;;;18.20;11.40;;;;;;5049628;28;20998;-73
2022/07/18 02:07:31;;;;;;;11.30;3.07;;;18.10;12.40;;;;;;5050231;28;20564;-72
2022/07/18 02:09:59;;;;;;;5.87;3.30;;;18.00;12.30;;;;;;5050960;28;20503;-72
2022/07/18 02:12:28;;;;;;;12.30;2.93;;;18.00;12.30;;;;;;5050878;28;20477;-73
2022/07/18 02:14:55;;;;;;;5.50;3.30;;;17.90;12.20;;;;;;5050331;28;20485;-72
2022/07/18 02:17:21;;;;;;;4.80;2.43;;;17.90;12.10;;;;;;5051002;28;20458;-72
2022/07/18 02:19:48;;;;;;;8.53;2.50;;;17.90;12.20;;;;;;5051043;28;21199;-72
2022/07/18 02:22:15;;;;;;;4.80;2.33;;;17.90;12.30;;;;;;5051551;28;20491;-72
2022/07/18 02:24:42;;;;;;;4.80;2.40;;;17.90;12.20;;;;;;5049597;28;20462;-72
2022/07/18 02:27:10;;;;;;;5.80;2.80;;;17.80;12.30;;;;;;5050687;28;20836;-72
2022/07/18 02:29:38;;;;;;;7.40;2.70;;;17.70;12.40;;;;;;5050616;28;20472;-75
2022/07/18 02:32:06;;;;;;;6.10;3.20;;;17.60;12.50;;;;;;5049665;28;20474;-73
2022/07/18 02:34:33;;;;;;;6.30;3.03;;;17.50;12.70;;;;;;5050490;28;20867;-71
2022/07/18 02:37:00;;;;;;;6.80;3.20;;;17.40;12.90;;;;;;5049730;28;20947;-72
2022/07/18 02:39:26;;;;;;;5.33;2.73;;;17.40;13.10;;;;;;5049824;28;20465;-72
2022/07/18 02:41:53;;;;;;;5.13;2.30;;;17.40;13.10;;;;;;5049580;28;20462;-73
2022/07/18 02:44:20;;;;;;;5.03;2.87;;;17.30;13.20;;;;;;5050696;28;20462;-73
2022/07/18 02:46:49;;;;;;;6.90;3.30;;;17.30;13.20;;;;;;5049973;28;20536;-72
2022/07/18 02:49:27;;;;;;;5.83;3.23;;;17.30;13.30;;;;;;5049535;28;20805;-75
2022/07/18 02:51:55;;;;;;;8.03;3.10;;;17.20;13.60;;;;;;5049197;28;20466;-72
2022/07/18 02:54:22;;;;;;;7.93;3.63;;;17.20;13.80;;;;;;5049334;28;20490;-72
2022/07/18 02:56:49;;;;;;;6.20;3.10;;;17.10;14.00;;;;;;5069970;28;20495;-72
2022/07/18 02:59:16;;;;;;;4.63;2.70;;;17.10;14.30;;;;;;5069495;28;20492;-72
2022/07/18 03:01:43;;;;;;;5.93;2.40;;;17.10;14.60;;;;;;5069402;28;20466;-73
2022/07/18 03:04:11;;;;;;;6.40;2.60;;;17.10;14.70;;;;;;5058240;28;20466;-74
2022/07/18 03:06:38;;;;;;;6.70;3.00;;;17.10;14.70;;;;;;5050065;28;20710;-73
2022/07/18 03:09:05;;;;;;;6.13;3.13;;;17.00;14.90;;;;;;5050085;28;20468;-73
2022/07/18 03:11:32;;;;;;;5.93;2.70;;;17.00;15.10;;;;;;5049269;28;20458;-73
2022/07/18 03:13:59;;;;;;;8.63;2.90;;;16.90;15.40;;;;;;5050599;28;20489;-74
2022/07/18 03:16:26;;;;;;;9.30;3.63;;;16.80;15.50;;;;;;5049420;28;20504;-72
2022/07/18 03:18:52;;;;;;;12.60;2.93;;;16.80;15.60;;;;;;5049397;28;20465;-72
2022/07/18 03:21:21;;;;;;;7.60;3.10;;;16.70;15.60;;;;;;5049205;28;20472;-72
2022/07/18 03:23:48;;;;;;;5.57;3.00;;;16.70;15.70;;;;;;5048400;28;21017;-72
2022/07/18 03:26:14;;;;;;;6.40;3.50;;;16.70;15.80;;;;;;5048006;28;20484;-73
2022/07/18 03:28:41;;;;;;;5.47;3.07;;;16.70;16.00;;;;;;5049192;28;20446;-71
2022/07/18 03:31:08;;;;;;;7.10;3.50;;;16.70;15.90;;;;;;5048410;28;20881;-72
2022/07/18 03:33:35;;;;;;;7.67;3.80;;;16.70;16.40;;;;;;5048866;28;20486;-73
2022/07/18 03:36:02;;;;;;;5.73;3.03;;;16.70;16.00;;;;;;5051022;28;20492;-73
2022/07/18 03:38:30;;;;;;;6.50;3.57;;;16.60;16.10;;;;;;5049579;28;20462;-72
2022/07/18 03:40:57;;;;;;;6.70;3.53;;;16.70;16.20;;;;;;5048743;28;20469;-72
2022/07/18 03:43:23;;;;;;;5.53;3.30;;;16.70;16.10;;;;;;5049067;28;20454;-74
2022/07/18 03:45:50;;;;;;;8.13;3.50;;;16.70;16.10;;;;;;5045675;28;20493;-73
2022/07/18 03:48:17;;;;;;;6.37;3.43;;;16.70;16.20;;;;;;5049280;28;20462;-71
2022/07/18 03:50:44;;;;;;;6.50;3.50;;;16.70;16.20;;;;;;5048567;28;20473;-72
2022/07/18 03:53:11;;;;;;;6.90;4.30;;;16.70;16.50;;;;;;5049204;28;20485;-72
2022/07/18 03:55:39;;;;;;;7.13;3.53;;;16.70;16.70;;;;;;5047754;28;20485;-72
2022/07/18 03:58:06;;;;;;;5.90;3.33;;;16.60;16.40;;;;;;5028577;28;20455;-72
2022/07/18 04:00:33;;;;;;;6.00;3.50;;;16.60;16.40;;;;;;5028288;28;20466;-73
2022/07/18 04:03:00;;;;;;;6.70;3.93;;;16.60;16.60;;;;;;5029360;28;20447;-71
2022/07/18 04:05:27;;;;;;;7.10;3.63;;;16.50;16.90;;;;;;5029015;28;20486;-73
2022/07/18 04:07:54;;;;;;;7.50;3.90;;;16.40;17.00;;;;;;5057854;28;20964;-73
2022/07/18 04:10:21;;;;;;;6.37;4.03;;;16.40;17.30;;;;;;5068847;28;20483;-72
2022/07/18 04:12:51;;;;;;;6.50;4.17;;;16.40;17.50;;;;;;5068435;28;20449;-72
2022/07/18 04:15:20;;;;;;;9.80;4.10;;;16.40;18.10;;;;;;5067980;28;20481;-72
2022/07/18 04:17:49;;;;;;;6.33;3.83;;;16.40;17.60;;;;;;5056805;28;20545;-72
2022/07/18 04:20:17;;;;;;;8.90;4.40;;;16.40;17.40;;;;;;5048903;28;20735;-72
2022/07/18 04:22:46;;;;;;;8.07;4.37;;;16.50;17.50;;;;;;5048369;28;20454;-71
2022/07/18 04:25:13;;;;;;;6.73;3.87;;;16.50;17.30;;;;;;5047890;28;20990;-74
2022/07/18 04:27:40;;;;;;;7.40;3.90;;;16.60;17.20;;;;;;5047530;28;20462;-72
2022/07/18 04:30:10;;;;;;;7.10;3.87;;;16.70;17.40;;;;;;5048568;28;20450;-73
2022/07/18 04:32:37;;;;;;;6.83;3.50;;;16.70;17.40;;;;;;5047665;28;20496;-72
2022/07/18 04:35:05;;;;;;;9.30;3.90;;;16.80;17.60;;;;;;5048233;28;20474;-72
2022/07/18 04:37:32;;;;;;;7.17;3.73;;;17.10;17.30;;;;;;5047753;28;20458;-72
2022/07/18 04:39:59;;;;;;;6.50;3.40;;;17.60;16.70;;;;;;5048020;28;20764;-72
2022/07/18 04:42:26;;;;;;;6.90;3.60;;;18.20;15.70;;;;;;5048217;28;20465;-72
2022/07/18 04:44:53;;;;;;;6.80;3.20;;;18.90;14.40;;;;;;5047623;28;21003;-73
2022/07/18 04:47:21;;;;;;;7.03;4.10;;;19.30;13.80;;;;;;5047306;28;20449;-70
2022/07/18 04:49:48;;;;;;;9.87;4.50;;;19.10;13.80;;;;;;5047302;28;20468;-75
2022/07/18 04:52:15;;;;;;;8.90;3.70;;;18.90;14.20;;;;;;5046789;28;20450;-72
2022/07/18 04:54:42;;;;;;;7.20;3.17;;;18.80;14.60;;;;;;5046705;28;20488;-71
2022/07/18 04:57:11;;;;;;;6.07;3.20;;;18.60;14.90;;;;;;5047794;28;20544;-73
2022/07/18 04:59:37;;;;;;;6.20;4.03;;;19.20;15.20;;;;;;5047091;28;20500;-72
2022/07/18 05:02:04;;;;;;;7.03;3.70;;;20.60;12.90;;;;;;5047002;28;20474;-72
2022/07/18 05:04:33;;;;;;;8.73;3.03;;;21.90;10.70;;;;;;5047338;28;20447;-72
2022/07/18 05:06:59;;;;;;;7.63;3.70;;;23.00;8.80;;;;;;5047325;28;20462;-72
2022/07/18 05:09:26;;;;;;;6.47;3.00;;;24.10;7.30;;;;;;5047427;28;20462;-72
2022/07/18 05:11:53;;;;;;;6.70;3.33;;;25.10;5.90;;;;;;5046930;28;20462;-71
2022/07/18 05:14:20;;;;;;;5.80;3.70;;;26.10;4.20;;;;;;5047887;28;20488;-70
2022/07/18 05:16:47;;;;;;;7.23;3.70;;;27.00;3.00;;;;;;5046820;28;20481;-69
2022/07/18 05:19:15;;;;;;;6.80;3.37;;;27.70;1.50;;;;;;5047346;28;20462;-71
2022/07/18 05:21:43;;;;;;;5.50;3.40;;;28.40;1.00;;;;;;5046453;28;20464;-70
2022/07/18 05:24:10;;;;;;;7.47;3.47;;;29.20;1.00;;;;;;5047361;28;20465;-71
2022/07/18 05:26:37;;;;;;;5.50;3.60;;;29.80;1.00;;;;;;5047270;28;20478;-72
2022/07/18 05:29:04;;;;;;;5.83;3.13;;;30.50;1.00;;;;;;5046825;28;20458;-73
2022/07/18 05:31:31;;;;;;;8.00;4.00;;;31.00;1.00;;;;;;5046523;28;20521;-72
2022/07/18 05:33:58;;;;;;;6.20;3.50;;;31.60;1.00;;;;;;5046151;28;20505;-74
2022/07/18 05:36:25;;;;;;;5.80;4.07;;;32.30;1.00;;;;;;5047166;28;20576;-74
2022/07/18 05:38:53;;;;;;;6.87;3.60;;;32.90;1.00;;;;;;5047582;28;20461;-73
2022/07/18 05:41:20;;;;;;;7.93;3.77;;;33.60;1.00;;;;;;5051172;28;20479;-74
2022/07/18 05:43:47;;;;;;;6.27;3.97;;;34.30;1.00;;;;;;5051059;28;20469;-74
2022/07/18 05:46:14;;;;;;;5.50;3.80;;;34.80;1.00;;;;;;5050697;28;20488;-74
2022/07/18 05:48:41;;;;;;;7.80;3.77;;;35.40;1.00;;;;;;5051089;28;20877;-74
2022/07/18 05:51:08;;;;;;;7.47;3.00;;;35.90;1.00;;;;;;5050738;28;20466;-74
2022/07/18 05:53:35;;;;;;;6.80;3.57;;;36.50;1.00;;;;;;5050013;28;20486;-76
2022/07/18 05:56:04;;;;;;;5.43;3.20;;;36.90;1.00;;;;;;5050817;28;20760;-74
2022/07/18 05:58:31;;;;;;;6.90;3.30;;;37.50;1.00;;;;;;5050181;28;20716;-75
2022/07/18 06:00:58;;;;;;;5.00;3.23;;;38.00;1.00;;;;;;5050159;28;20470;-74
2022/07/18 06:03:24;;;;;;;5.90;3.57;;;38.50;1.00;;;;;;5050392;28;20638;-74
2022/07/18 06:05:51;;;;;;;7.80;3.50;;;39.00;1.00;;;;;;5051093;28;20492;-75
2022/07/18 06:08:18;;;;;;;5.03;3.40;;;39.60;1.00;;;;;;5050858;28;20583;-76
2022/07/18 06:10:45;;;;;;;7.40;3.00;;;40.10;1.00;;;;;;5050626;28;20479;-75
2022/07/18 06:13:13;;;;;;;8.47;2.80;;;40.70;1.00;;;;;;5050282;28;20465;-75
2022/07/18 06:15:40;;;;;;;6.70;2.90;;;41.20;1.00;;;;;;5049575;28;20485;-75
2022/07/18 06:21:28;;;;;;;7.27;2.40;;;41.70;1.00;;;;;;5049615;28;20787;-77
2022/07/18 06:23:55;;;;;;;4.47;2.20;;;42.00;1.00;;;;;;5049732;28;20481;-75
2022/07/18 06:26:22;;;;;;;4.73;1.90;;;42.50;1.00;;;;;;5049251;28;21006;-75
2022/07/18 06:28:50;;;;;;;3.80;1.97;;;42.70;1.00;;;;;;5049208;28;20470;-75
2022/07/18 06:31:17;;;;;;;4.40;2.00;;;42.80;1.00;;;;;;5045076;28;20478;-74
2022/07/18 06:33:44;;;;;;;4.30;2.30;;;43.10;1.00;;;;;;5052065;28;20577;-74
2022/07/18 06:36:13;;;;;;;6.20;2.03;;;43.30;1.00;;;;;;5046522;28;20486;-74
2022/07/18 06:38:40;;;;;;;5.40;2.23;;;43.80;1.00;;;;;;5050679;28;20905;-74
2022/07/18 06:41:07;;;;;;;4.60;1.97;;;44.40;1.00;;;;;;5051906;28;20505;-75
2022/07/18 06:43:34;;;;;;;5.53;2.40;;;44.90;1.00;;;;;;5046594;28;20525;-77
2022/07/18 06:46:02;;;;;;;4.53;1.87;;;45.60;1.00;;;;;;5036002;28;20484;-75
2022/07/18 06:48:32;;;;;;;4.20;1.47;;;45.90;1.00;;;;;;5039528;28;20458;-77
2022/07/18 06:51:01;;;;;;;3.93;1.87;;;46.50;1.00;;;;;;5044307;28;20469;-76
2022/07/18 06:53:28;;;;;;;7.17;2.23;;;47.10;1.00;;;;;;5037000;28;20461;-78
2022/07/18 06:55:55;;;;;;;3.80;2.30;;;47.50;1.00;;;;;;5046116;28;21525;-77
2022/07/18 06:58:22;;;;;;;4.50;1.97;;;47.60;1.00;;;;;;5033696;28;20954;-77
2022/07/18 07:00:48;;;;;;;4.30;2.00;;;47.40;1.00;;;;;;5052529;28;20474;-77
2022/07/18 07:03:17;;;;;;;4.30;2.20;;;47.50;1.00;;;;;;5043605;28;20465;-77
2022/07/18 07:05:44;;;;;;;3.93;2.27;;;47.80;1.00;;;;;;5048659;28;20480;-77
2022/07/18 07:08:11;;;;;;;4.80;2.23;;;48.30;1.00;;;;;;5039212;28;21116;-77
2022/07/18 07:10:38;;;;;;;4.10;2.00;;;48.70;1.00;;;;;;5038059;28;20519;-78
2022/07/18 07:13:05;;;;;;;4.43;2.00;;;48.60;1.00;;;;;;5046492;28;21159;-77
2022/07/18 07:15:32;;;;;;;4.73;2.20;;;48.80;1.00;;;;;;5052822;28;21254;-76
2022/07/18 07:17:59;;;;;;;3.60;1.90;;;49.30;1.00;;;;;;5047394;28;20463;-77
2022/07/18 07:20:27;;;;;;;3.80;2.00;;;49.90;1.00;;;;;;5049405;28;20811;-77
2022/07/18 07:22:56;;;;;;;3.37;1.90;;;50.60;1.00;;;;;;5051100;28;20461;-77
2022/07/18 07:25:25;;;;;;;5.87;2.10;;;50.90;1.00;;;;;;5055191;28;20478;-78
2022/07/18 07:27:52;;;;;;;5.27;2.07;;;51.20;1.00;;;;;;5045213;28;20474;-78
2022/07/18 07:30:20;;;;;;;7.50;2.03;;;51.30;1.00;;;;;;5048495;28;20466;-77
2022/07/18 07:32:48;;;;;;;4.60;1.90;;;51.50;1.00;;;;;;5046836;28;21126;-77
2022/07/18 07:35:16;;;;;;;7.53;2.53;;;51.50;1.00;;;;;;5052874;28;21071;-77
2022/07/18 07:37:46;;;;;;;3.80;1.70;;;51.80;1.00;;;;;;5035867;28;20473;-78
2022/07/18 07:40:14;;;;;;;3.80;2.00;;;52.30;1.00;;;;;;5045888;28;20464;-77
2022/07/18 07:42:41;;;;;;;6.97;2.23;;;52.40;1.00;;;;;;5047431;28;20473;-78
2022/07/18 07:45:09;;;;;;;7.57;2.20;;;52.90;1.00;;;;;;5044728;28;20953;-77
2022/07/18 07:47:37;;;;;;;6.33;2.40;;;53.60;1.00;;;;;;5047910;28;20473;-77
2022/07/18 07:50:06;;;;;;;10.50;2.70;;;54.10;1.00;;;;;;5051821;28;20465;-77
2022/07/18 07:52:33;;;;;;;6.43;2.37;;;54.60;1.00;;;;;;5048610;28;20515;-77
2022/07/18 07:55:01;;;;;;;9.70;2.47;;;55.00;1.00;;;;;;5044351;28;20493;-77
2022/07/18 07:57:28;;;;;;;9.03;2.80;;;55.50;1.00;;;;;;5049831;28;20462;-78
2022/07/18 07:59:55;;;;;;;8.03;2.47;;;55.50;1.00;;;;;;5048220;28;20470;-77
2022/07/18 08:02:22;;;;;;;10.87;2.47;;;55.50;1.00;;;;;;5045644;28;20474;-78
2022/07/18 08:04:49;;;;;;;7.20;2.13;;;55.60;1.00;;;;;;5047606;28;20459;-77
2022/07/18 08:07:16;;;;;;;7.00;2.03;;;55.40;1.00;;;;;;5047746;28;21245;-76
2022/07/18 08:09:43;;;;;;;4.83;1.73;;;55.20;1.00;;;;;;5050691;28;20462;-76
2022/07/18 08:12:11;;;;;;;4.70;1.93;;;55.30;1.00;;;;;;5048208;28;20481;-77
2022/07/18 08:14:40;;;;;;;9.03;2.00;;;55.30;1.00;;;;;;5047291;28;20488;-76
2022/07/18 08:17:07;;;;;;;9.33;2.57;;;55.60;1.00;;;;;;5043374;28;20548;-76
2022/07/18 08:19:34;;;;;;;8.40;2.30;;;56.10;1.00;;;;;;5047128;28;20946;-76
2022/07/18 08:22:01;;;;;;;7.40;2.13;;;56.50;1.00;;;;;;5043435;28;20568;-77
2022/07/18 08:24:27;;;;;;;6.43;2.00;;;57.20;1.00;;;;;;5045795;28;20453;-77
2022/07/18 08:26:54;;;;;;;4.97;1.60;;;57.50;1.00;;;;;;5045434;28;20474;-77
2022/07/18 08:29:22;;;;;;;6.80;2.17;;;57.70;1.00;;;;;;5047669;28;20210;-77
2022/07/18 08:31:49;;;;;;;5.15;1.90;;;58.00;1.00;;;;;;5041231;28;20719;-76
2022/07/18 08:34:16;;;;;;;5.45;1.65;;;58.40;1.00;;;;;;5045369;28;20219;-77
2022/07/18 08:36:43;;;;;;;3.95;1.85;;;58.80;1.00;;;;;;5046111;28;20219;-77
2022/07/18 08:39:09;;;;;;;5.03;1.67;;;58.80;1.00;;;;;;5044273;28;20680;-76
2022/07/18 08:41:38;;;;;;;3.35;1.65;;;59.00;1.00;;;;;;5047026;28;20648;-77
2022/07/18 08:44:06;;;;;;;3.58;1.90;;;58.90;1.00;;;;;;5044721;28;20665;-76
2022/07/18 08:46:37;;;;;;;3.65;1.83;;;58.50;1.00;;;;;;5037695;28;20216;-76
2022/07/18 08:49:04;;;;;;;4.13;1.87;;;58.30;1.00;;;;;;5040855;28;20667;-77
2022/07/18 08:51:31;;;;;;;2.70;1.33;;;58.50;1.00;;;;;;5045647;28;20230;-76
2022/07/18 08:53:58;;;;;;;3.45;1.77;;;58.80;1.00;;;;;;5046597;28;20224;-77
2022/07/18 08:59:47;;;;;;;5.28;1.40;;;58.80;1.00;;;;;;5042126;28;20431;-76
2022/07/18 09:02:15;;;;;;;4.68;1.50;;;58.50;1.00;;;;;;5040170;28;20224;-76
2022/07/18 09:04:44;;;;;;;3.75;1.85;;;59.00;1.00;;;;;;5045629;28;20223;-76
2022/07/18 09:07:23;;;;;;;4.57;1.55;;;59.30;1.00;;;;;;5057497;28;20195;-76
2022/07/18 09:09:54;;;;;;;3.67;1.75;;;59.90;1.00;;;;;;5047166;28;20691;-76
2022/07/18 09:12:21;;;;;;;3.70;1.88;;;60.50;1.00;;;;;;5047281;28;20559;-76
2022/07/18 09:14:49;;;;;;;4.35;1.38;;;60.90;1.00;;;;;;5063670;28;20715;-76
2022/07/18 09:17:18;;;;;;;4.38;1.58;;;60.90;1.00;;;;;;5051467;28;20207;-77
2022/07/18 09:19:59;;;;;;;6.38;1.50;;;61.10;1.00;;;;;;5048127;28;20559;-76
2022/07/18 09:22:27;;;;;;;3.17;1.50;;;61.40;1.00;;;;;;5058981;28;20194;-76
2022/07/18 09:25:00;;;;;;;3.40;1.70;;;61.10;1.00;;;;;;5057278;28;20204;-77
2022/07/18 09:27:30;;;;;;;4.65;1.77;;;60.90;1.00;;;;;;5051546;28;20231;-76
2022/07/18 09:30:32;;;;;;;3.10;1.40;;;60.70;1.00;;;;;;5051141;28;20363;-76
2022/07/18 09:33:10;;;;;;;3.70;1.50;;;59.70;1.00;;;;;;5047098;28;20303;-76
2022/07/18 09:35:38;;;;;;;3.03;1.33;;;59.20;1.00;;;;;;5062222;28;20294;-76
2022/07/18 09:38:07;;;;;;;5.35;1.48;;;59.00;1.00;;;;;;5053023;28;20203;-76
2022/07/18 09:40:36;;;;;;;5.68;1.77;;;58.20;1.00;;;;;;5051452;28;20587;-76
2022/07/18 09:43:05;;;;;;;3.00;1.43;;;57.40;1.00;;;;;;5049744;28;20211;-77
2022/07/18 09:45:33;;;;;;;3.73;1.57;;;56.10;1.00;;;;;;5049141;28;20219;-76
2022/07/18 09:48:01;;;;;;;3.93;1.50;;;53.50;1.00;;;;;;5050022;28;20465;-77
2022/07/18 09:50:35;;;;;;;6.47;1.50;;;51.20;1.00;;;;;;5050832;28;20465;-76
2022/07/18 09:53:16;;;;;;;4.83;1.90;;;48.70;1.00;;;;;;5050365;28;20917;-76
2022/07/18 09:55:45;;;;;;;4.20;1.23;;;46.80;1.00;;;;;;5047641;28;21018;-76
2022/07/18 09:58:15;;;;;;;6.27;1.90;;;45.30;1.00;;;;;;5049591;28;20454;-75
2022/07/18 10:00:42;;;;;;;3.43;1.90;;;43.90;1.00;;;;;;5044728;28;20489;-76
2022/07/18 10:03:09;;;;;;;7.07;1.77;;;42.80;1.00;;;;;;5048121;28;20469;-75
2022/07/18 10:05:40;;;;;;;3.70;1.30;;;41.70;1.00;;;;;;5061470;28;20477;-74
2022/07/18 10:08:09;;;;;;;3.37;1.40;;;40.60;1.00;;;;;;5045100;28;20457;-75
2022/07/18 10:10:37;;;;;;;4.00;1.80;;;39.80;1.00;;;;;;5048993;28;20644;-74
2022/07/18 10:16:26;;;;;;;3.87;1.60;;;38.20;1.00;;;;;;5048133;28;20461;-77
2022/07/18 10:18:53;;;;;;;5.63;2.30;;;37.60;1.00;;;;;;5047860;28;20473;-74
2022/07/18 10:21:22;;;;;;;4.13;1.77;;;37.10;1.00;;;;;;5049980;28;20458;-75
2022/07/18 10:23:51;;;;;;;3.77;1.60;;;36.70;1.00;;;;;;5050833;28;20549;-74
2022/07/18 10:26:19;;;;;;;4.07;1.70;;;36.30;1.00;;;;;;5054857;28;20491;-74
2022/07/18 10:29:17;;;;;;;4.13;1.80;;;35.90;1.00;;;;;;5054262;28;20465;-75
2022/07/18 10:32:03;;;;;;;4.23;1.60;;;35.30;1.00;;;;;;5049274;28;20528;-74
2022/07/18 10:34:33;;;;;;;5.03;1.70;;;34.80;1.00;;;;;;5043848;28;20860;-75
2022/07/18 10:40:27;;;;;;;4.03;1.87;;;34.30;1.00;;;;;;5048156;28;21072;-74
2022/07/18 10:43:34;;;;;;;4.90;1.97;;;34.00;1.00;;;;;;5040954;28;20829;-74
2022/07/18 10:46:02;;;;;;;5.20;2.37;;;33.80;1.00;;;;;;5052125;28;20477;-76
2022/07/18 10:48:56;;;;;;;3.90;1.70;;;33.80;1.00;;;;;;5041420;28;20475;-75
2022/07/18 10:51:34;;;;;;;3.97;1.60;;;33.70;1.00;;;;;;5057340;28;20631;-74
2022/07/18 10:54:10;;;;;;;6.23;1.90;;;33.70;1.00;;;;;;5046175;28;20454;-75
2022/07/18 10:57:10;;;;;;;5.03;1.90;;;33.60;1.00;;;;;;5047801;28;20911;-74
2022/07/18 10:59:40;;;;;;;4.90;1.83;;;33.40;1.00;;;;;;5047485;28;20465;-75
2022/07/18 11:02:08;;;;;;;5.17;1.90;;;33.20;1.00;;;;;;5045417;28;20478;-75
2022/07/18 11:04:44;;;;;;;3.60;1.63;;;33.10;1.00;;;;;;5047507;28;20670;-75
2022/07/18 11:07:13;;;;;;;3.60;1.40;;;32.90;1.00;;;;;;5048218;28;20464;-74
2022/07/18 11:09:43;;;;;;;5.83;1.90;;;32.90;1.00;;;;;;5044503;28;20942;-74
2022/07/18 11:12:26;;;;;;;4.37;1.60;;;32.90;1.00;;;;;;5047649;28;20461;-74
2022/07/18 11:15:14;;;;;;;4.20;1.90;;;32.90;1.00;;;;;;5048175;28;20549;-76
2022/07/18 11:18:04;;;;;;;4.07;1.43;;;32.90;1.00;;;;;;5041423;28;21009;-75
2022/07/18 11:20:42;;;;;;;3.97;1.67;;;32.80;1.00;;;;;;5048531;28;20454;-77
2022/07/18 11:23:18;;;;;;;7.57;1.77;;;32.80;1.00;;;;;;5048693;28;20450;-74
2022/07/18 11:25:46;;;;;;;4.13;1.60;;;32.80;1.00;;;;;;5051427;28;20545;-74
2022/07/18 11:28:14;;;;;;;5.47;2.10;;;32.80;1.00;;;;;;5042306;28;20466;-75
2022/07/18 11:30:42;;;;;;;4.33;2.10;;;32.80;1.00;;;;;;5051822;28;20803;-74
2022/07/18 11:33:23;;;;;;;4.30;1.70;;;32.70;1.00;;;;;;5050644;28;20467;-74
2022/07/18 11:35:50;;;;;;;6.23;1.90;;;32.40;1.00;;;;;;5048348;28;20489;-76
2022/07/18 11:38:17;;;;;;;10.67;2.33;;;32.30;1.00;;;;;;5047495;28;20519;-75
2022/07/18 11:40:49;;;;;;;4.60;1.60;;;32.30;1.00;;;;;;5049110;28;20458;-74
2022/07/18 11:43:25;;;;;;;4.17;1.90;;;32.30;1.00;;;;;;5052281;28;20473;-74
2022/07/18 11:46:05;;;;;;;5.10;1.97;;;32.30;1.00;;;;;;5047297;28;20473;-74
2022/07/18 11:48:33;;;;;;;4.33;1.80;;;32.20;1.00;;;;;;5050528;28;20466;-74
2022/07/18 11:51:00;;;;;;;7.03;2.40;;;32.20;1.00;;;;;;5040394;28;21122;-75
2022/07/18 11:53:27;;;;;;;4.00;1.90;;;32.20;1.00;;;;;;5048823;28;20469;-74
2022/07/18 11:55:55;;;;;;;4.43;1.80;;;32.20;1.00;;;;;;5047738;28;21005;-74
2022/07/18 11:58:24;;;;;;;4.50;1.60;;;32.20;1.00;;;;;;5053625;28;20470;-74
2022/07/18 12:00:50;;;;;;;3.70;1.83;;;32.20;1.00;;;;;;5043570;28;20473;-74
2022/07/18 12:03:19;;;;;;;3.40;1.50;;;32.20;1.00;;;;;;5040675;28;20474;-75
2022/07/18 12:05:49;;;;;;;4.83;1.60;;;32.20;1.00;;;;;;5041625;28;21005;-74
2022/07/18 12:08:35;;;;;;;6.23;2.43;;;32.20;1.00;;;;;;5035346;28;21051;-75
2022/07/18 12:11:06;;;;;;;7.17;2.43;;;32.10;1.00;;;;;;5047940;28;21135;-74
2022/07/18 12:13:49;;;;;;;3.80;1.90;;;32.10;1.00;;;;;;5047601;28;20462;-74
2022/07/18 12:16:40;;;;;;;5.00;2.07;;;32.00;1.00;;;;;;5040615;28;20802;-74
2022/07/18 12:19:10;;;;;;;3.77;1.70;;;31.90;1.00;;;;;;5037254;28;20554;-74
2022/07/18 12:21:46;;;;;;;3.90;1.80;;;31.80;1.00;;;;;;5046326;28;20556;-74
2022/07/18 12:24:23;;;;;;;4.90;2.00;;;31.70;1.00;;;;;;5046172;28;20830;-74
2022/07/18 12:26:57;;;;;;;4.90;1.67;;;31.70;1.00;;;;;;5047000;28;20561;-74
2022/07/18 12:29:25;;;;;;;4.23;1.50;;;31.60;1.00;;;;;;5052886;28;20461;-74
2022/07/18 12:31:52;;;;;;;4.40;1.80;;;31.60;1.00;;;;;;5046578;28;20737;-75
2022/07/18 12:34:19;;;;;;;4.83;2.10;;;31.50;1.00;;;;;;5044490;28;20844;-74
2022/07/18 12:36:53;;;;;;;5.53;1.93;;;31.50;1.00;;;;;;5047117;28;20485;-74
2022/07/18 12:39:29;;;;;;;3.77;1.70;;;31.50;1.00;;;;;;5045714;28;20457;-74
2022/07/18 12:41:57;;;;;;;4.10;1.43;;;31.50;1.00;;;;;;5047920;28;20465;-74
2022/07/18 12:44:25;;;;;;;3.70;1.80;;;31.50;1.00;;;;;;5046747;28;20552;-74
2022/07/18 12:46:52;;;;;;;5.83;1.77;;;31.60;1.00;;;;;;5047127;28;20478;-74
2022/07/18 12:49:19;;;;;;;3.83;2.10;;;31.60;1.00;;;;;;5043915;28;20461;-74
2022/07/18 12:51:46;;;;;;;5.40;2.00;;;31.60;1.00;;;;;;5054716;28;20480;-74
2022/07/18 12:54:13;;;;;;;5.23;1.70;;;31.70;1.00;;;;;;5042183;28;20462;-74
2022/07/18 12:56:39;;;;;;;3.70;1.67;;;31.70;1.00;;;;;;5046997;28;20858;-74
2022/07/18 12:59:06;;;;;;;5.60;2.20;;;31.70;1.00;;;;;;5046009;28;20468;-74
2022/07/18 13:01:34;;;;;;;4.10;1.50;;;31.70;1.00;;;;;;5044902;28;20493;-74
2022/07/18 13:04:01;;;;;;;4.50;2.00;;;31.60;1.00;;;;;;5046342;28;20465;-74
2022/07/18 13:06:28;;;;;;;6.00;2.03;;;31.70;1.00;;;;;;5046593;28;20473;-74
2022/07/18 13:08:55;;;;;;;3.90;1.80;;;31.70;1.00;;;;;;5039005;28;20476;-74
2022/07/18 13:11:22;;;;;;;3.70;1.80;;;31.60;1.00;;;;;;5044189;28;20466;-74
2022/07/18 13:13:48;;;;;;;3.60;1.47;;;31.70;1.00;;;;;;5047188;28;20454;-74
2022/07/18 13:16:15;;;;;;;4.20;2.10;;;31.70;1.00;;;;;;5046888;28;20486;-74
2022/07/18 13:18:43;;;;;;;6.20;1.70;;;31.60;1.00;;;;;;5047586;28;20981;-74